< < Back
Terminal Aerodrome Forecast


Current Version              Previous Versions:   1  2  3  4  5  6  7  8  9  

Terminal Aerodrome Forecast

406
FTUS42 KGSP 171700
TAFHKY
TAF
KHKY 171731Z 1718/1818 06007KT P6SM FEW250
     FM172100 13004KT P6SM FEW250
     FM180000 00000KT P6SM FEW250
     FM180600 00000KT P6SM SCT040 BKN250
     FM180900 00000KT P6SM BKN040=



Latest METAR

132
SAUS70 KWBC 181800 RRH
MTRHKY
METAR KHKY 181753Z 02004KT 10SM CLR 12/04 A3034 RMK AO2 PRESFR SLP265
T01220039 10122 20061 58027


USA.gov is the U.S. government's official web portal to all federal, state and local government web resources and services.